100LL.CA
Aviation Fuel Pricing for Canadians
Please upgrade your browser - Tested with IE9, FireFox, Chrome, Safari

Fuel Airports Other Help
Prices Economy Info List METAR/TAF Kneeboard Help

Reference Airport: GRANDE PRAIRIE, AB
N 55 10 55  W 118 53 14
Provinces to show:

CYQU GRANDE PRAIRIE, AB
WEATHER
METARCYQU 230400Z 26018G24KT 25SM SKC 04/M07 A2989 RMK SLP155
TAFTAF CYQU 230040Z 2301/2313 26015KT P6SM BKN240 RMK NXT FCST BY 230700Z
OTHER SITES

FlightAware

FltPlan

Google Maps

SkyVector
FUEL
FBO 100LL
member
100LL
public
JETA MOGAS
Happy Gas (2024-02-21)2.4302.160
Canada Flight Supplement - CYQU
(opens in new tab/window)


Please Send Updates!

Desktop Version ]  [ Mobile Version ]  [ Disclaimer ]